sensor_id;sensor_type;location;lat;lon;timestamp;P1;durP1;ratioP1;P2;durP2;ratioP2
14584;SDS011;7379;51.506;11.876;2023-05-20T00:01:25;4.40;;;3.53;;
14584;SDS011;7379;51.506;11.876;2023-05-20T00:03:51;4.55;;;3.45;;
14584;SDS011;7379;51.506;11.876;2023-05-20T00:06:18;4.88;;;3.40;;
14584;SDS011;7379;51.506;11.876;2023-05-20T00:08:45;4.72;;;3.60;;
14584;SDS011;7379;51.506;11.876;2023-05-20T00:11:12;4.10;;;3.45;;
14584;SDS011;7379;51.506;11.876;2023-05-20T00:13:40;4.50;;;3.58;;
14584;SDS011;7379;51.506;11.876;2023-05-20T00:16:06;3.97;;;3.17;;
14584;SDS011;7379;51.506;11.876;2023-05-20T00:18:33;4.90;;;3.42;;
14584;SDS011;7379;51.506;11.876;2023-05-20T00:21:00;4.78;;;3.60;;
14584;SDS011;7379;51.506;11.876;2023-05-20T00:23:27;3.67;;;3.38;;
14584;SDS011;7379;51.506;11.876;2023-05-20T00:25:54;4.00;;;3.30;;
14584;SDS011;7379;51.506;11.876;2023-05-20T00:28:20;3.70;;;3.40;;
14584;SDS011;7379;51.506;11.876;2023-05-20T00:30:49;4.55;;;3.42;;
14584;SDS011;7379;51.506;11.876;2023-05-20T00:33:15;4.63;;;3.70;;
14584;SDS011;7379;51.506;11.876;2023-05-20T00:35:42;3.60;;;3.28;;
14584;SDS011;7379;51.506;11.876;2023-05-20T00:38:09;3.50;;;3.10;;
14584;SDS011;7379;51.506;11.876;2023-05-20T00:40:36;4.07;;;3.20;;
14584;SDS011;7379;51.506;11.876;2023-05-20T00:43:02;4.22;;;3.50;;
14584;SDS011;7379;51.506;11.876;2023-05-20T00:45:29;4.63;;;3.40;;
14584;SDS011;7379;51.506;11.876;2023-05-20T00:47:58;4.10;;;3.50;;
14584;SDS011;7379;51.506;11.876;2023-05-20T00:50:27;4.63;;;3.65;;
14584;SDS011;7379;51.506;11.876;2023-05-20T00:52:54;3.90;;;3.30;;
14584;SDS011;7379;51.506;11.876;2023-05-20T00:55:22;4.20;;;3.40;;
14584;SDS011;7379;51.506;11.876;2023-05-20T00:57:50;3.72;;;3.42;;
14584;SDS011;7379;51.506;11.876;2023-05-20T01:00:18;4.05;;;3.35;;
14584;SDS011;7379;51.506;11.876;2023-05-20T01:02:44;4.53;;;3.58;;
14584;SDS011;7379;51.506;11.876;2023-05-20T01:05:12;4.88;;;3.65;;
14584;SDS011;7379;51.506;11.876;2023-05-20T01:07:39;4.78;;;3.45;;
14584;SDS011;7379;51.506;11.876;2023-05-20T01:10:07;3.50;;;3.20;;
14584;SDS011;7379;51.506;11.876;2023-05-20T01:12:35;4.05;;;3.30;;
14584;SDS011;7379;51.506;11.876;2023-05-20T01:15:06;3.30;;;3.00;;
14584;SDS011;7379;51.506;11.876;2023-05-20T01:17:35;4.25;;;3.40;;
14584;SDS011;7379;51.506;11.876;2023-05-20T01:20:05;3.63;;;3.03;;
14584;SDS011;7379;51.506;11.876;2023-05-20T01:22:36;4.13;;;3.42;;
14584;SDS011;7379;51.506;11.876;2023-05-20T01:25:03;3.53;;;3.22;;
14584;SDS011;7379;51.506;11.876;2023-05-20T01:27:30;3.80;;;3.40;;
14584;SDS011;7379;51.506;11.876;2023-05-20T01:29:57;4.65;;;3.38;;
14584;SDS011;7379;51.506;11.876;2023-05-20T01:32:25;3.92;;;3.53;;
14584;SDS011;7379;51.506;11.876;2023-05-20T01:34:55;4.13;;;3.20;;
14584;SDS011;7379;51.506;11.876;2023-05-20T01:37:24;4.72;;;3.40;;
14584;SDS011;7379;51.506;11.876;2023-05-20T01:39:53;3.65;;;3.30;;
14584;SDS011;7379;51.506;11.876;2023-05-20T01:42:21;3.50;;;3.13;;
14584;SDS011;7379;51.506;11.876;2023-05-20T01:44:48;3.70;;;3.28;;
14584;SDS011;7379;51.506;11.876;2023-05-20T01:47:16;4.57;;;3.40;;
14584;SDS011;7379;51.506;11.876;2023-05-20T01:49:42;3.85;;;3.45;;
14584;SDS011;7379;51.506;11.876;2023-05-20T01:52:10;3.30;;;2.90;;
14584;SDS011;7379;51.506;11.876;2023-05-20T01:54:36;4.07;;;3.10;;
14584;SDS011;7379;51.506;11.876;2023-05-20T01:57:05;3.92;;;3.25;;
14584;SDS011;7379;51.506;11.876;2023-05-20T01:59:31;4.70;;;3.33;;
14584;SDS011;7379;51.506;11.876;2023-05-20T02:01:58;4.18;;;3.50;;
14584;SDS011;7379;51.506;11.876;2023-05-20T02:04:25;4.13;;;3.30;;
14584;SDS011;7379;51.506;11.876;2023-05-20T02:06:51;4.75;;;3.30;;
14584;SDS011;7379;51.506;11.876;2023-05-20T02:09:18;5.15;;;3.47;;
14584;SDS011;7379;51.506;11.876;2023-05-20T02:11:45;3.83;;;3.25;;
14584;SDS011;7379;51.506;11.876;2023-05-20T02:14:13;4.15;;;3.20;;
14584;SDS011;7379;51.506;11.876;2023-05-20T02:16:39;3.75;;;3.22;;
14584;SDS011;7379;51.506;11.876;2023-05-20T02:19:06;4.43;;;3.28;;
14584;SDS011;7379;51.506;11.876;2023-05-20T02:21:36;5.70;;;3.45;;
14584;SDS011;7379;51.506;11.876;2023-05-20T02:24:04;4.72;;;3.30;;
14584;SDS011;7379;51.506;11.876;2023-05-20T02:26:31;4.15;;;3.45;;
14584;SDS011;7379;51.506;11.876;2023-05-20T02:28:58;3.38;;;3.03;;
14584;SDS011;7379;51.506;11.876;2023-05-20T02:31:26;5.88;;;3.40;;
14584;SDS011;7379;51.506;11.876;2023-05-20T02:33:52;4.18;;;3.20;;
14584;SDS011;7379;51.506;11.876;2023-05-20T02:36:19;3.80;;;3.30;;
14584;SDS011;7379;51.506;11.876;2023-05-20T02:38:46;4.55;;;3.28;;
14584;SDS011;7379;51.506;11.876;2023-05-20T02:41:13;4.57;;;3.60;;
14584;SDS011;7379;51.506;11.876;2023-05-20T02:43:40;3.97;;;3.45;;
14584;SDS011;7379;51.506;11.876;2023-05-20T02:46:08;4.72;;;3.60;;
14584;SDS011;7379;51.506;11.876;2023-05-20T02:48:37;4.38;;;3.15;;
14584;SDS011;7379;51.506;11.876;2023-05-20T02:51:03;3.58;;;3.28;;
14584;SDS011;7379;51.506;11.876;2023-05-20T02:53:30;3.90;;;3.40;;
14584;SDS011;7379;51.506;11.876;2023-05-20T02:55:57;4.18;;;3.78;;
14584;SDS011;7379;51.506;11.876;2023-05-20T02:58:25;4.40;;;3.45;;
14584;SDS011;7379;51.506;11.876;2023-05-20T03:00:53;4.40;;;3.70;;
14584;SDS011;7379;51.506;11.876;2023-05-20T03:03:22;3.47;;;3.17;;
14584;SDS011;7379;51.506;11.876;2023-05-20T03:05:50;5.93;;;3.70;;
14584;SDS011;7379;51.506;11.876;2023-05-20T03:08:17;4.97;;;3.75;;
14584;SDS011;7379;51.506;11.876;2023-05-20T03:10:45;4.22;;;3.20;;
14584;SDS011;7379;51.506;11.876;2023-05-20T03:13:11;6.63;;;3.70;;
14584;SDS011;7379;51.506;11.876;2023-05-20T03:15:39;4.90;;;4.05;;
14584;SDS011;7379;51.506;11.876;2023-05-20T03:18:08;4.95;;;3.53;;
14584;SDS011;7379;51.506;11.876;2023-05-20T03:20:35;6.10;;;3.53;;
14584;SDS011;7379;51.506;11.876;2023-05-20T03:23:03;7.53;;;3.60;;
14584;SDS011;7379;51.506;11.876;2023-05-20T03:25:30;4.72;;;3.72;;
14584;SDS011;7379;51.506;11.876;2023-05-20T03:27:57;4.60;;;3.42;;
14584;SDS011;7379;51.506;11.876;2023-05-20T03:30:24;4.40;;;3.50;;
14584;SDS011;7379;51.506;11.876;2023-05-20T03:32:51;5.38;;;3.65;;
14584;SDS011;7379;51.506;11.876;2023-05-20T03:35:18;3.72;;;3.38;;
14584;SDS011;7379;51.506;11.876;2023-05-20T03:37:45;5.93;;;3.55;;
14584;SDS011;7379;51.506;11.876;2023-05-20T03:40:13;4.50;;;3.60;;
14584;SDS011;7379;51.506;11.876;2023-05-20T03:42:39;5.68;;;4.10;;
14584;SDS011;7379;51.506;11.876;2023-05-20T03:45:06;5.20;;;3.80;;
14584;SDS011;7379;51.506;11.876;2023-05-20T03:47:34;4.80;;;3.70;;
14584;SDS011;7379;51.506;11.876;2023-05-20T03:50:00;4.30;;;3.72;;
14584;SDS011;7379;51.506;11.876;2023-05-20T03:52:27;4.53;;;3.95;;
14584;SDS011;7379;51.506;11.876;2023-05-20T03:54:54;5.68;;;4.20;;
14584;SDS011;7379;51.506;11.876;2023-05-20T03:57:22;6.65;;;4.20;;
14584;SDS011;7379;51.506;11.876;2023-05-20T03:59:49;6.10;;;4.20;;
14584;SDS011;7379;51.506;11.876;2023-05-20T04:02:16;4.82;;;4.18;;
14584;SDS011;7379;51.506;11.876;2023-05-20T04:04:42;4.30;;;3.90;;
14584;SDS011;7379;51.506;11.876;2023-05-20T04:07:09;5.55;;;4.30;;
14584;SDS011;7379;51.506;11.876;2023-05-20T04:09:36;5.75;;;4.07;;
14584;SDS011;7379;51.506;11.876;2023-05-20T04:12:03;4.90;;;4.20;;
14584;SDS011;7379;51.506;11.876;2023-05-20T04:14:32;4.60;;;3.92;;
14584;SDS011;7379;51.506;11.876;2023-05-20T04:17:00;4.95;;;4.18;;
14584;SDS011;7379;51.506;11.876;2023-05-20T04:19:27;5.80;;;4.20;;
14584;SDS011;7379;51.506;11.876;2023-05-20T04:21:54;5.03;;;4.13;;
14584;SDS011;7379;51.506;11.876;2023-05-20T04:24:21;5.30;;;4.63;;
14584;SDS011;7379;51.506;11.876;2023-05-20T04:26:49;5.45;;;4.38;;
14584;SDS011;7379;51.506;11.876;2023-05-20T04:29:16;5.05;;;4.55;;
14584;SDS011;7379;51.506;11.876;2023-05-20T04:31:45;5.20;;;4.50;;
14584;SDS011;7379;51.506;11.876;2023-05-20T04:34:11;5.68;;;4.85;;
14584;SDS011;7379;51.506;11.876;2023-05-20T04:36:38;5.97;;;4.68;;
14584;SDS011;7379;51.506;11.876;2023-05-20T04:39:05;5.90;;;4.82;;
14584;SDS011;7379;51.506;11.876;2023-05-20T04:41:33;6.80;;;5.25;;
14584;SDS011;7379;51.506;11.876;2023-05-20T04:44:00;5.78;;;5.18;;
14584;SDS011;7379;51.506;11.876;2023-05-20T04:46:27;7.13;;;5.28;;
14584;SDS011;7379;51.506;11.876;2023-05-20T04:48:56;6.60;;;4.95;;
14584;SDS011;7379;51.506;11.876;2023-05-20T04:51:23;5.75;;;4.95;;
14584;SDS011;7379;51.506;11.876;2023-05-20T04:53:50;5.85;;;5.13;;
14584;SDS011;7379;51.506;11.876;2023-05-20T04:56:16;6.38;;;5.53;;
14584;SDS011;7379;51.506;11.876;2023-05-20T04:58:43;5.97;;;5.32;;
14584;SDS011;7379;51.506;11.876;2023-05-20T05:01:10;7.38;;;5.60;;
14584;SDS011;7379;51.506;11.876;2023-05-20T05:03:37;6.93;;;5.57;;
14584;SDS011;7379;51.506;11.876;2023-05-20T05:06:05;6.45;;;5.78;;
14584;SDS011;7379;51.506;11.876;2023-05-20T05:08:31;5.97;;;5.25;;
14584;SDS011;7379;51.506;11.876;2023-05-20T05:10:58;6.53;;;5.55;;
14584;SDS011;7379;51.506;11.876;2023-05-20T05:13:25;6.07;;;5.47;;
14584;SDS011;7379;51.506;11.876;2023-05-20T05:15:56;6.90;;;5.38;;
14584;SDS011;7379;51.506;11.876;2023-05-20T05:18:24;8.05;;;5.60;;
14584;SDS011;7379;51.506;11.876;2023-05-20T05:20:57;5.93;;;5.30;;
14584;SDS011;7379;51.506;11.876;2023-05-20T05:23:26;7.60;;;6.05;;
14584;SDS011;7379;51.506;11.876;2023-05-20T05:25:52;6.75;;;6.05;;
14584;SDS011;7379;51.506;11.876;2023-05-20T05:28:19;7.20;;;5.53;;
14584;SDS011;7379;51.506;11.876;2023-05-20T05:30:46;7.40;;;5.88;;
14584;SDS011;7379;51.506;11.876;2023-05-20T05:33:13;6.35;;;5.65;;
14584;SDS011;7379;51.506;11.876;2023-05-20T05:35:40;6.13;;;5.53;;
14584;SDS011;7379;51.506;11.876;2023-05-20T05:38:06;8.38;;;5.88;;
14584;SDS011;7379;51.506;11.876;2023-05-20T05:40:34;6.30;;;5.70;;
14584;SDS011;7379;51.506;11.876;2023-05-20T05:43:01;6.65;;;5.82;;
14584;SDS011;7379;51.506;11.876;2023-05-20T05:45:28;7.45;;;6.20;;
14584;SDS011;7379;51.506;11.876;2023-05-20T05:47:55;8.02;;;6.10;;
14584;SDS011;7379;51.506;11.876;2023-05-20T05:50:21;8.93;;;6.20;;
14584;SDS011;7379;51.506;11.876;2023-05-20T05:52:48;8.43;;;6.13;;
14584;SDS011;7379;51.506;11.876;2023-05-20T05:55:15;8.38;;;6.30;;
14584;SDS011;7379;51.506;11.876;2023-05-20T05:57:43;7.85;;;6.35;;
14584;SDS011;7379;51.506;11.876;2023-05-20T06:00:11;9.27;;;6.72;;
14584;SDS011;7379;51.506;11.876;2023-05-20T06:02:38;7.78;;;6.53;;
14584;SDS011;7379;51.506;11.876;2023-05-20T06:05:05;9.85;;;7.38;;
14584;SDS011;7379;51.506;11.876;2023-05-20T06:07:32;7.97;;;6.78;;
14584;SDS011;7379;51.506;11.876;2023-05-20T06:10:00;8.50;;;6.93;;
14584;SDS011;7379;51.506;11.876;2023-05-20T06:12:26;11.20;;;8.07;;
14584;SDS011;7379;51.506;11.876;2023-05-20T06:14:55;9.18;;;7.45;;
14584;SDS011;7379;51.506;11.876;2023-05-20T06:17:21;9.88;;;7.50;;
14584;SDS011;7379;51.506;11.876;2023-05-20T06:19:48;9.50;;;7.65;;
14584;SDS011;7379;51.506;11.876;2023-05-20T06:22:15;11.60;;;8.80;;
14584;SDS011;7379;51.506;11.876;2023-05-20T06:24:41;12.43;;;9.32;;
14584;SDS011;7379;51.506;11.876;2023-05-20T06:27:08;10.32;;;8.85;;
14584;SDS011;7379;51.506;11.876;2023-05-20T06:29:35;11.25;;;9.00;;
14584;SDS011;7379;51.506;11.876;2023-05-20T06:32:03;12.77;;;9.27;;
14584;SDS011;7379;51.506;11.876;2023-05-20T06:34:30;10.70;;;9.00;;
14584;SDS011;7379;51.506;11.876;2023-05-20T06:36:57;10.98;;;8.88;;
14584;SDS011;7379;51.506;11.876;2023-05-20T06:39:24;9.55;;;8.32;;
14584;SDS011;7379;51.506;11.876;2023-05-20T06:41:50;10.35;;;8.57;;
14584;SDS011;7379;51.506;11.876;2023-05-20T06:44:17;11.10;;;8.90;;
14584;SDS011;7379;51.506;11.876;2023-05-20T06:46:44;9.32;;;8.27;;
14584;SDS011;7379;51.506;11.876;2023-05-20T06:49:12;10.80;;;9.18;;
14584;SDS011;7379;51.506;11.876;2023-05-20T06:51:39;11.38;;;9.20;;
14584;SDS011;7379;51.506;11.876;2023-05-20T06:54:05;10.65;;;9.00;;
14584;SDS011;7379;51.506;11.876;2023-05-20T06:56:32;11.82;;;9.48;;
14584;SDS011;7379;51.506;11.876;2023-05-20T06:58:59;11.80;;;9.52;;
14584;SDS011;7379;51.506;11.876;2023-05-20T07:01:25;11.52;;;9.57;;
14584;SDS011;7379;51.506;11.876;2023-05-20T07:03:52;11.63;;;9.75;;
14584;SDS011;7379;51.506;11.876;2023-05-20T07:06:20;10.38;;;8.95;;
14584;SDS011;7379;51.506;11.876;2023-05-20T07:08:47;11.13;;;9.88;;
14584;SDS011;7379;51.506;11.876;2023-05-20T07:11:13;10.95;;;9.45;;
14584;SDS011;7379;51.506;11.876;2023-05-20T07:13:40;10.98;;;9.73;;
14584;SDS011;7379;51.506;11.876;2023-05-20T07:16:07;13.73;;;10.30;;
14584;SDS011;7379;51.506;11.876;2023-05-20T07:18:33;10.85;;;9.40;;
14584;SDS011;7379;51.506;11.876;2023-05-20T07:21:00;11.80;;;9.88;;
14584;SDS011;7379;51.506;11.876;2023-05-20T07:23:28;12.95;;;10.43;;
14584;SDS011;7379;51.506;11.876;2023-05-20T07:25:55;11.32;;;9.75;;
14584;SDS011;7379;51.506;11.876;2023-05-20T07:28:21;12.60;;;10.75;;
14584;SDS011;7379;51.506;11.876;2023-05-20T07:30:48;11.43;;;9.85;;
14584;SDS011;7379;51.506;11.876;2023-05-20T07:33:15;12.05;;;10.18;;
14584;SDS011;7379;51.506;11.876;2023-05-20T07:35:42;10.43;;;9.00;;
14584;SDS011;7379;51.506;11.876;2023-05-20T07:38:09;11.80;;;10.18;;
14584;SDS011;7379;51.506;11.876;2023-05-20T07:40:38;12.48;;;9.70;;
14584;SDS011;7379;51.506;11.876;2023-05-20T07:43:06;12.35;;;9.75;;
14584;SDS011;7379;51.506;11.876;2023-05-20T07:45:33;11.73;;;9.68;;
14584;SDS011;7379;51.506;11.876;2023-05-20T07:48:01;14.48;;;9.40;;
14584;SDS011;7379;51.506;11.876;2023-05-20T07:50:28;14.75;;;9.95;;
14584;SDS011;7379;51.506;11.876;2023-05-20T07:52:55;11.30;;;9.77;;
14584;SDS011;7379;51.506;11.876;2023-05-20T07:55:21;11.32;;;10.13;;
14584;SDS011;7379;51.506;11.876;2023-05-20T07:57:49;13.25;;;9.85;;
14584;SDS011;7379;51.506;11.876;2023-05-20T08:00:16;15.20;;;10.80;;
14584;SDS011;7379;51.506;11.876;2023-05-20T08:02:43;17.38;;;10.57;;
14584;SDS011;7379;51.506;11.876;2023-05-20T08:05:10;16.83;;;11.02;;
14584;SDS011;7379;51.506;11.876;2023-05-20T08:07:37;13.07;;;10.77;;
14584;SDS011;7379;51.506;11.876;2023-05-20T08:10:04;13.98;;;9.77;;
14584;SDS011;7379;51.506;11.876;2023-05-20T08:12:31;15.55;;;10.88;;
14584;SDS011;7379;51.506;11.876;2023-05-20T08:14:59;13.35;;;10.65;;
14584;SDS011;7379;51.506;11.876;2023-05-20T08:17:26;12.85;;;9.90;;
14584;SDS011;7379;51.506;11.876;2023-05-20T08:19:53;11.35;;;9.90;;
14584;SDS011;7379;51.506;11.876;2023-05-20T08:22:19;13.90;;;10.27;;
14584;SDS011;7379;51.506;11.876;2023-05-20T08:24:46;11.65;;;10.02;;
14584;SDS011;7379;51.506;11.876;2023-05-20T08:27:13;14.35;;;10.10;;
14584;SDS011;7379;51.506;11.876;2023-05-20T08:29:40;14.55;;;10.35;;
14584;SDS011;7379;51.506;11.876;2023-05-20T08:32:08;14.00;;;11.10;;
14584;SDS011;7379;51.506;11.876;2023-05-20T08:34:35;12.38;;;11.07;;
14584;SDS011;7379;51.506;11.876;2023-05-20T08:37:01;13.70;;;10.25;;
14584;SDS011;7379;51.506;11.876;2023-05-20T08:39:28;12.88;;;10.27;;
14584;SDS011;7379;51.506;11.876;2023-05-20T08:41:55;13.38;;;10.18;;
14584;SDS011;7379;51.506;11.876;2023-05-20T08:44:23;15.60;;;10.98;;
14584;SDS011;7379;51.506;11.876;2023-05-20T08:46:52;11.70;;;10.50;;
14584;SDS011;7379;51.506;11.876;2023-05-20T08:49:23;12.93;;;11.18;;
14584;SDS011;7379;51.506;11.876;2023-05-20T08:51:49;15.30;;;11.35;;
14584;SDS011;7379;51.506;11.876;2023-05-20T08:54:16;13.30;;;10.98;;
14584;SDS011;7379;51.506;11.876;2023-05-20T08:56:44;14.50;;;12.00;;
14584;SDS011;7379;51.506;11.876;2023-05-20T08:59:12;15.10;;;11.02;;
14584;SDS011;7379;51.506;11.876;2023-05-20T09:01:40;12.55;;;10.80;;
14584;SDS011;7379;51.506;11.876;2023-05-20T09:04:08;12.30;;;10.57;;
14584;SDS011;7379;51.506;11.876;2023-05-20T09:06:42;12.18;;;10.88;;
14584;SDS011;7379;51.506;11.876;2023-05-20T09:09:10;16.42;;;11.23;;
14584;SDS011;7379;51.506;11.876;2023-05-20T09:11:37;14.40;;;11.43;;
14584;SDS011;7379;51.506;11.876;2023-05-20T09:14:04;16.95;;;11.85;;
14584;SDS011;7379;51.506;11.876;2023-05-20T09:16:31;14.63;;;10.88;;
14584;SDS011;7379;51.506;11.876;2023-05-20T09:18:58;12.82;;;10.88;;
14584;SDS011;7379;51.506;11.876;2023-05-20T09:21:25;14.23;;;10.68;;
14584;SDS011;7379;51.506;11.876;2023-05-20T09:23:54;13.32;;;10.85;;
14584;SDS011;7379;51.506;11.876;2023-05-20T09:26:23;14.77;;;10.50;;
14584;SDS011;7379;51.506;11.876;2023-05-20T09:28:52;14.00;;;11.40;;
14584;SDS011;7379;51.506;11.876;2023-05-20T09:31:18;15.05;;;10.77;;
14584;SDS011;7379;51.506;11.876;2023-05-20T09:33:46;13.45;;;11.55;;
14584;SDS011;7379;51.506;11.876;2023-05-20T09:36:16;14.80;;;11.20;;
14584;SDS011;7379;51.506;11.876;2023-05-20T09:38:44;13.07;;;10.68;;
14584;SDS011;7379;51.506;11.876;2023-05-20T09:41:12;14.48;;;10.45;;
14584;SDS011;7379;51.506;11.876;2023-05-20T09:43:41;12.07;;;10.73;;
14584;SDS011;7379;51.506;11.876;2023-05-20T09:46:07;12.80;;;10.48;;
14584;SDS011;7379;51.506;11.876;2023-05-20T09:48:35;12.90;;;11.45;;
14584;SDS011;7379;51.506;11.876;2023-05-20T09:51:03;12.75;;;10.15;;
14584;SDS011;7379;51.506;11.876;2023-05-20T09:53:31;13.00;;;11.27;;
14584;SDS011;7379;51.506;11.876;2023-05-20T09:55:58;14.10;;;11.63;;
14584;SDS011;7379;51.506;11.876;2023-05-20T09:58:26;14.07;;;11.20;;
14584;SDS011;7379;51.506;11.876;2023-05-20T10:00:55;14.88;;;11.10;;
14584;SDS011;7379;51.506;11.876;2023-05-20T10:03:22;12.95;;;11.52;;
14584;SDS011;7379;51.506;11.876;2023-05-20T10:05:54;13.90;;;11.13;;
14584;SDS011;7379;51.506;11.876;2023-05-20T10:08:33;13.07;;;11.43;;
14584;SDS011;7379;51.506;11.876;2023-05-20T10:11:18;12.50;;;10.73;;
14584;SDS011;7379;51.506;11.876;2023-05-20T10:13:56;15.30;;;11.35;;
14584;SDS011;7379;51.506;11.876;2023-05-20T10:16:41;13.70;;;11.82;;
14584;SDS011;7379;51.506;11.876;2023-05-20T10:19:18;16.23;;;11.75;;
14584;SDS011;7379;51.506;11.876;2023-05-20T10:21:56;13.98;;;11.68;;
14584;SDS011;7379;51.506;11.876;2023-05-20T10:24:28;16.30;;;11.93;;
14584;SDS011;7379;51.506;11.876;2023-05-20T10:26:56;13.93;;;11.73;;
14584;SDS011;7379;51.506;11.876;2023-05-20T10:29:25;14.95;;;11.50;;
14584;SDS011;7379;51.506;11.876;2023-05-20T10:31:51;16.42;;;11.95;;
14584;SDS011;7379;51.506;11.876;2023-05-20T10:34:19;14.15;;;12.55;;
14584;SDS011;7379;51.506;11.876;2023-05-20T10:36:56;13.90;;;12.05;;
14584;SDS011;7379;51.506;11.876;2023-05-20T10:39:24;14.30;;;11.75;;
14584;SDS011;7379;51.506;11.876;2023-05-20T10:41:52;14.50;;;12.30;;
14584;SDS011;7379;51.506;11.876;2023-05-20T10:44:19;14.35;;;12.23;;
14584;SDS011;7379;51.506;11.876;2023-05-20T10:46:47;13.50;;;11.55;;
14584;SDS011;7379;51.506;11.876;2023-05-20T10:49:31;14.35;;;11.82;;
14584;SDS011;7379;51.506;11.876;2023-05-20T10:51:59;14.75;;;12.25;;
14584;SDS011;7379;51.506;11.876;2023-05-20T10:54:26;12.88;;;11.52;;
14584;SDS011;7379;51.506;11.876;2023-05-20T10:56:54;13.80;;;11.75;;
14584;SDS011;7379;51.506;11.876;2023-05-20T10:59:21;13.43;;;11.68;;
14584;SDS011;7379;51.506;11.876;2023-05-20T11:01:49;12.50;;;11.25;;
14584;SDS011;7379;51.506;11.876;2023-05-20T11:04:16;12.30;;;10.98;;
14584;SDS011;7379;51.506;11.876;2023-05-20T11:06:50;12.85;;;11.52;;
14584;SDS011;7379;51.506;11.876;2023-05-20T11:09:17;12.93;;;11.45;;
14584;SDS011;7379;51.506;11.876;2023-05-20T11:11:44;15.10;;;12.20;;
14584;SDS011;7379;51.506;11.876;2023-05-20T11:14:11;14.05;;;11.98;;
14584;SDS011;7379;51.506;11.876;2023-05-20T11:16:39;14.38;;;11.73;;
14584;SDS011;7379;51.506;11.876;2023-05-20T11:19:07;13.65;;;11.73;;
14584;SDS011;7379;51.506;11.876;2023-05-20T11:21:35;13.27;;;11.85;;
14584;SDS011;7379;51.506;11.876;2023-05-20T11:24:08;12.63;;;11.32;;
14584;SDS011;7379;51.506;11.876;2023-05-20T11:26:35;13.98;;;11.50;;
14584;SDS011;7379;51.506;11.876;2023-05-20T11:29:02;13.68;;;11.85;;
14584;SDS011;7379;51.506;11.876;2023-05-20T11:31:29;14.40;;;11.65;;
14584;SDS011;7379;51.506;11.876;2023-05-20T11:33:56;14.50;;;12.57;;
14584;SDS011;7379;51.506;11.876;2023-05-20T11:36:26;13.20;;;11.80;;
14584;SDS011;7379;51.506;11.876;2023-05-20T11:38:55;13.48;;;11.38;;
14584;SDS011;7379;51.506;11.876;2023-05-20T11:41:23;15.20;;;12.45;;
14584;SDS011;7379;51.506;11.876;2023-05-20T11:43:54;14.73;;;12.35;;
14584;SDS011;7379;51.506;11.876;2023-05-20T11:46:22;14.50;;;11.40;;
14584;SDS011;7379;51.506;11.876;2023-05-20T11:48:52;14.02;;;12.32;;
14584;SDS011;7379;51.506;11.876;2023-05-20T11:51:23;16.00;;;12.52;;
14584;SDS011;7379;51.506;11.876;2023-05-20T11:53:58;13.45;;;11.90;;
14584;SDS011;7379;51.506;11.876;2023-05-20T11:56:27;14.05;;;12.48;;
14584;SDS011;7379;51.506;11.876;2023-05-20T11:58:55;13.23;;;11.82;;
14584;SDS011;7379;51.506;11.876;2023-05-20T12:01:22;14.38;;;11.75;;
14584;SDS011;7379;51.506;11.876;2023-05-20T12:03:49;13.88;;;11.93;;
14584;SDS011;7379;51.506;11.876;2023-05-20T12:06:16;15.38;;;12.85;;
14584;SDS011;7379;51.506;11.876;2023-05-20T12:08:43;12.30;;;11.00;;
14584;SDS011;7379;51.506;11.876;2023-05-20T12:11:11;15.35;;;12.05;;
14584;SDS011;7379;51.506;11.876;2023-05-20T12:13:38;14.45;;;12.40;;
14584;SDS011;7379;51.506;11.876;2023-05-20T12:16:05;13.73;;;12.23;;
14584;SDS011;7379;51.506;11.876;2023-05-20T12:18:32;13.00;;;11.60;;
14584;SDS011;7379;51.506;11.876;2023-05-20T12:20:59;13.68;;;12.02;;
14584;SDS011;7379;51.506;11.876;2023-05-20T12:23:26;19.08;;;12.57;;
14584;SDS011;7379;51.506;11.876;2023-05-20T12:25:54;16.27;;;11.90;;
14584;SDS011;7379;51.506;11.876;2023-05-20T12:28:22;15.55;;;12.45;;
14584;SDS011;7379;51.506;11.876;2023-05-20T12:30:49;18.13;;;12.63;;
14584;SDS011;7379;51.506;11.876;2023-05-20T12:33:16;13.80;;;11.98;;
14584;SDS011;7379;51.506;11.876;2023-05-20T12:35:44;15.77;;;12.43;;
14584;SDS011;7379;51.506;11.876;2023-05-20T12:38:11;17.83;;;12.05;;
14584;SDS011;7379;51.506;11.876;2023-05-20T12:40:38;16.33;;;12.38;;
14584;SDS011;7379;51.506;11.876;2023-05-20T12:43:04;16.17;;;12.45;;
14584;SDS011;7379;51.506;11.876;2023-05-20T12:45:33;16.20;;;12.63;;
14584;SDS011;7379;51.506;11.876;2023-05-20T12:47:59;16.08;;;12.38;;
14584;SDS011;7379;51.506;11.876;2023-05-20T12:50:27;14.88;;;12.13;;
14584;SDS011;7379;51.506;11.876;2023-05-20T12:52:53;13.60;;;12.00;;
14584;SDS011;7379;51.506;11.876;2023-05-20T12:55:20;14.27;;;12.52;;
14584;SDS011;7379;51.506;11.876;2023-05-20T12:57:47;15.55;;;12.07;;
14584;SDS011;7379;51.506;11.876;2023-05-20T13:00:15;14.38;;;11.93;;
14584;SDS011;7379;51.506;11.876;2023-05-20T13:02:44;15.98;;;11.93;;
14584;SDS011;7379;51.506;11.876;2023-05-20T13:05:10;13.77;;;12.30;;
14584;SDS011;7379;51.506;11.876;2023-05-20T13:07:38;13.93;;;12.40;;
14584;SDS011;7379;51.506;11.876;2023-05-20T13:10:05;15.43;;;11.90;;
14584;SDS011;7379;51.506;11.876;2023-05-20T13:12:34;15.35;;;12.23;;
14584;SDS011;7379;51.506;11.876;2023-05-20T13:15:01;15.30;;;12.88;;
14584;SDS011;7379;51.506;11.876;2023-05-20T13:17:28;14.25;;;12.50;;
14584;SDS011;7379;51.506;11.876;2023-05-20T13:19:57;14.75;;;11.98;;
14584;SDS011;7379;51.506;11.876;2023-05-20T13:22:25;15.68;;;12.60;;
14584;SDS011;7379;51.506;11.876;2023-05-20T13:24:52;14.70;;;12.43;;
14584;SDS011;7379;51.506;11.876;2023-05-20T13:27:18;14.98;;;12.18;;
14584;SDS011;7379;51.506;11.876;2023-05-20T13:29:45;15.07;;;12.63;;
14584;SDS011;7379;51.506;11.876;2023-05-20T13:32:12;14.68;;;13.00;;
14584;SDS011;7379;51.506;11.876;2023-05-20T13:34:39;13.38;;;11.98;;
14584;SDS011;7379;51.506;11.876;2023-05-20T13:37:07;14.60;;;13.00;;
14584;SDS011;7379;51.506;11.876;2023-05-20T13:39:33;15.63;;;11.82;;
14584;SDS011;7379;51.506;11.876;2023-05-20T13:42:00;15.80;;;12.45;;
14584;SDS011;7379;51.506;11.876;2023-05-20T13:44:28;16.60;;;12.73;;
14584;SDS011;7379;51.506;11.876;2023-05-20T13:46:55;14.35;;;12.57;;
14584;SDS011;7379;51.506;11.876;2023-05-20T13:49:21;15.63;;;13.02;;
14584;SDS011;7379;51.506;11.876;2023-05-20T13:51:49;16.25;;;13.20;;
14584;SDS011;7379;51.506;11.876;2023-05-20T13:54:18;15.32;;;12.70;;
14584;SDS011;7379;51.506;11.876;2023-05-20T13:56:45;16.73;;;13.07;;
14584;SDS011;7379;51.506;11.876;2023-05-20T13:59:12;15.20;;;13.60;;
14584;SDS011;7379;51.506;11.876;2023-05-20T14:01:39;17.50;;;13.18;;
14584;SDS011;7379;51.506;11.876;2023-05-20T14:04:08;15.45;;;13.07;;
14584;SDS011;7379;51.506;11.876;2023-05-20T14:06:36;16.50;;;13.25;;
14584;SDS011;7379;51.506;11.876;2023-05-20T14:09:04;14.43;;;12.77;;
14584;SDS011;7379;51.506;11.876;2023-05-20T14:11:33;16.55;;;13.77;;
14584;SDS011;7379;51.506;11.876;2023-05-20T14:14:00;14.93;;;13.25;;
14584;SDS011;7379;51.506;11.876;2023-05-20T14:16:26;15.15;;;13.55;;
14584;SDS011;7379;51.506;11.876;2023-05-20T14:18:53;16.77;;;13.18;;
14584;SDS011;7379;51.506;11.876;2023-05-20T14:21:20;18.77;;;13.85;;
14584;SDS011;7379;51.506;11.876;2023-05-20T14:23:46;17.15;;;13.63;;
14584;SDS011;7379;51.506;11.876;2023-05-20T14:26:13;16.98;;;13.75;;
14584;SDS011;7379;51.506;11.876;2023-05-20T14:28:41;15.55;;;13.75;;
14584;SDS011;7379;51.506;11.876;2023-05-20T14:31:08;15.45;;;13.57;;
14584;SDS011;7379;51.506;11.876;2023-05-20T14:33:35;16.83;;;13.40;;
14584;SDS011;7379;51.506;11.876;2023-05-20T14:36:02;14.35;;;12.82;;